Time;durP1;ratioP1;P1;durP2;ratioP2;P2;SDS_P1;SDS_P2;PMS_P1;PMS_P2;Temp;Humidity;BMP_temperature;BMP_pressure;BME280_temperature;BME280_humidity;BME280_pressure;Samples;Min_cycle;Max_cycle;Signal;HPM_P1;HPM_P2
2024/04/19 00:01:18;;;;;;;4.97;1.80;;;;;;;7.18;81.22;101261.03;5433893;26;20014;-71
2024/04/19 00:03:44;;;;;;;5.72;2.33;;;;;;;7.10;81.83;101257.41;5402116;26;20080;-71
2024/04/19 00:06:10;;;;;;;6.88;2.13;;;;;;;7.24;82.90;101248.59;5431390;26;20007;-70
2024/04/19 00:08:36;;;;;;;4.93;2.35;;;;;;;7.26;83.81;101251.88;5437426;26;20011;-71
2024/04/19 00:11:03;;;;;;;4.13;1.80;;;;;;;7.17;86.92;101248.25;5408294;26;20080;-71
2024/04/19 00:13:29;;;;;;;4.93;2.20;;;;;;;7.20;89.00;101251.41;5398036;26;20530;-71
2024/04/19 00:15:57;;;;;;;7.18;2.63;;;;;;;7.22;88.55;101251.28;5404713;26;19999;-71
2024/04/19 00:18:24;;;;;;;8.45;3.13;;;;;;;7.24;88.00;101246.00;5433124;26;20585;-70
2024/04/19 00:20:50;;;;;;;7.25;2.65;;;;;;;7.26;88.33;101238.97;5408040;26;20046;-72
2024/04/19 00:23:16;;;;;;;8.48;2.42;;;;;;;7.25;88.43;101242.47;5408703;26;20469;-72
2024/04/19 00:25:42;;;;;;;7.45;2.72;;;;;;;7.22;87.81;101220.34;5399515;26;20003;-72
2024/04/19 00:28:08;;;;;;;8.07;2.42;;;;;;;7.19;89.01;101226.53;5431423;26;20350;-73
2024/04/19 00:30:34;;;;;;;5.00;2.40;;;;;;;7.13;90.17;101216.72;5403002;26;20519;-71
2024/04/19 00:33:00;;;;;;;6.40;2.53;;;;;;;7.13;90.58;101216.72;5410535;26;20432;-71
2024/04/19 00:35:26;;;;;;;8.48;2.28;;;;;;;7.16;90.79;101208.75;5408292;26;20015;-71
2024/04/19 00:37:52;;;;;;;5.53;2.00;;;;;;;7.13;91.07;101214.16;5435861;26;20021;-72
2024/04/19 00:40:30;;;;;;;7.18;2.30;;;;;;;7.24;90.55;101202.97;5432233;26;20015;-71
2024/04/19 00:42:57;;;;;;;7.88;2.63;;;;;;;7.15;91.05;101201.13;5438450;26;20052;-71
2024/04/19 00:45:37;;;;;;;11.90;3.45;;;;;;;7.15;92.75;101195.97;5436294;26;20625;-71
2024/04/19 00:48:20;;;;;;;6.82;2.10;;;;;;;7.22;93.53;101190.19;5435672;26;22105;-71
2024/04/19 00:50:55;;;;;;;6.10;2.33;;;;;;;7.14;94.53;101202.91;5437703;26;19994;-71
2024/04/19 00:53:26;;;;;;;6.00;2.50;;;;;;;7.05;93.64;101187.34;5408023;26;20010;-71
2024/04/19 00:55:57;;;;;;;6.82;2.50;;;;;;;7.14;93.50;101182.25;5443838;26;20579;-73
2024/04/19 00:58:27;;;;;;;10.18;2.35;;;;;;;7.05;93.86;101167.53;5436791;26;20022;-71
2024/04/19 01:00:54;;;;;;;10.05;2.88;;;;;;;7.19;95.48;101174.16;5429704;26;20015;-71
2024/04/19 01:03:20;;;;;;;8.85;3.15;;;;;;;7.12;96.40;101173.84;5438893;26;20010;-71
2024/04/19 01:05:46;;;;;;;7.32;2.83;;;;;;;7.01;98.26;101171.31;5436991;26;20014;-71
2024/04/19 01:08:29;;;;;;;9.05;3.28;;;;;;;7.02;98.82;101166.00;5434685;26;20015;-71
2024/04/19 01:10:55;;;;;;;7.85;3.22;;;;;;;7.05;98.87;101156.41;5409195;26;20035;-72
2024/04/19 01:13:21;;;;;;;8.68;3.13;;;;;;;7.03;100.00;101159.09;5405618;26;20011;-71
2024/04/19 01:15:47;;;;;;;6.05;2.95;;;;;;;6.92;100.00;101147.06;5409125;26;20018;-71
2024/04/19 01:18:13;;;;;;;6.35;2.97;;;;;;;6.88;100.00;101139.72;5414359;26;20021;-71
2024/04/19 01:20:39;;;;;;;10.38;2.95;;;;;;;6.76;100.00;101133.78;5439046;26;20003;-72
2024/04/19 01:23:06;;;;;;;6.50;2.65;;;;;;;6.79;100.00;101131.75;5409565;26;20002;-71
2024/04/19 01:25:35;;;;;;;8.32;3.20;;;;;;;6.79;100.00;101125.81;5434770;26;20018;-71
2024/04/19 01:28:01;;;;;;;6.78;2.35;;;;;;;6.77;100.00;101123.34;5438480;26;20048;-72
2024/04/19 01:30:27;;;;;;;5.47;2.88;;;;;;;6.78;100.00;101126.72;5432173;26;20075;-71
2024/04/19 01:32:53;;;;;;;10.18;2.65;;;;;;;6.71;100.00;101121.25;5441034;26;20349;-72
2024/04/19 01:35:19;;;;;;;7.07;3.33;;;;;;;6.65;100.00;101103.72;5410709;26;20003;-71
2024/04/19 01:37:45;;;;;;;6.47;3.45;;;;;;;6.58;100.00;101102.56;5407638;26;20003;-71
2024/04/19 01:40:11;;;;;;;10.60;3.40;;;;;;;6.48;100.00;101099.91;5434002;26;20470;-72
2024/04/19 01:42:37;;;;;;;17.70;3.95;;;;;;;6.51;100.00;101099.66;5442384;26;20026;-72
2024/04/19 01:45:03;;;;;;;7.65;3.70;;;;;;;6.56;100.00;101094.97;5409424;26;20017;-72
2024/04/19 01:47:29;;;;;;;8.05;3.90;;;;;;;6.43;100.00;101087.38;5381712;26;19999;-72
2024/04/19 01:49:55;;;;;;;12.77;3.30;;;;;;;6.57;100.00;101082.88;5440398;26;20477;-71
2024/04/19 01:52:21;;;;;;;10.85;4.22;;;;;;;6.45;100.00;101084.69;5445321;26;19999;-70
2024/04/19 01:54:47;;;;;;;7.03;3.90;;;;;;;6.47;100.00;101079.41;5446993;26;20003;-71
2024/04/19 01:57:13;;;;;;;9.05;4.18;;;;;;;6.38;100.00;101070.66;5414889;26;20758;-73
2024/04/19 01:59:39;;;;;;;8.27;3.90;;;;;;;6.24;100.00;101075.13;5438863;26;20003;-72
2024/04/19 02:02:05;;;;;;;13.10;4.68;;;;;;;6.14;100.00;101065.69;5443427;26;20003;-72
2024/04/19 02:04:32;;;;;;;7.60;4.32;;;;;;;6.27;100.00;101050.88;5413671;26;20002;-75
2024/04/19 02:06:58;;;;;;;6.70;4.43;;;;;;;6.27;100.00;101043.16;5408337;26;20010;-72
2024/04/19 02:09:35;;;;;;;8.25;4.82;;;;;;;6.27;100.00;101042.34;5408459;26;20018;-72
2024/04/19 02:12:02;;;;;;;9.65;4.05;;;;;;;6.20;100.00;101029.97;5411335;26;19994;-72
2024/04/19 02:14:30;;;;;;;9.82;4.57;;;;;;;6.21;100.00;101030.78;5406509;26;20019;-71
2024/04/19 02:16:57;;;;;;;12.15;4.25;;;;;;;6.30;100.00;101024.09;5410530;26;20682;-72
2024/04/19 02:19:23;;;;;;;8.38;4.50;;;;;;;6.18;100.00;101015.59;5438031;26;20059;-71
2024/04/19 02:21:49;;;;;;;10.60;5.50;;;;;;;6.13;100.00;101005.66;5407531;26;20014;-72
2024/04/19 02:24:15;;;;;;;10.25;4.85;;;;;;;6.18;100.00;100997.56;5438841;26;20026;-72
2024/04/19 02:26:41;;;;;;;14.43;5.60;;;;;;;6.21;100.00;100997.31;5408185;26;20025;-71
2024/04/19 02:31:52;;;;;;;10.43;6.05;;;;;;;6.16;100.00;100992.53;5439783;26;20007;-72
2024/04/19 02:34:19;;;;;;;9.48;5.63;;;;;;;6.11;100.00;100986.13;5440029;26;20018;-72
2024/04/19 02:36:44;;;;;;;9.18;5.57;;;;;;;6.12;100.00;100973.13;5439009;26;20064;-72
2024/04/19 02:39:11;;;;;;;17.73;6.40;;;;;;;6.22;100.00;100968.88;5404971;26;20007;-72
2024/04/19 02:41:39;;;;;;;10.20;5.75;;;;;;;6.27;100.00;100955.59;5409572;26;20018;-72
2024/04/19 02:44:04;;;;;;;16.65;6.07;;;;;;;6.20;100.00;100955.28;5408001;26;20548;-71
2024/04/19 02:46:30;;;;;;;13.30;4.78;;;;;;;6.17;100.00;100937.50;5436050;26;20017;-72
2024/04/19 02:48:57;;;;;;;8.95;5.63;;;;;;;6.20;100.00;100941.59;5440960;26;20457;-71
2024/04/19 02:51:23;;;;;;;10.90;5.25;;;;;;;6.19;100.00;100934.81;5402622;26;20025;-72
2024/04/19 02:53:49;;;;;;;7.82;4.93;;;;;;;6.15;100.00;100928.28;5414336;26;20003;-72
2024/04/19 02:56:15;;;;;;;14.93;5.60;;;;;;;6.20;100.00;100929.53;5434631;26;20002;-71
2024/04/19 02:58:41;;;;;;;13.30;6.18;;;;;;;6.20;100.00;100932.13;5410111;26;20043;-73
2024/04/19 03:01:07;;;;;;;14.05;6.18;;;;;;;6.22;100.00;100937.97;5367351;26;20022;-72
2024/04/19 03:03:33;;;;;;;11.20;5.43;;;;;;;6.20;100.00;100939.03;5406369;26;20015;-71
2024/04/19 03:05:59;;;;;;;11.20;5.35;;;;;;;6.20;100.00;100926.16;5408426;26;20011;-72
2024/04/19 03:08:26;;;;;;;16.27;5.78;;;;;;;6.14;100.00;100927.47;5424223;26;20003;-70
2024/04/19 03:10:52;;;;;;;9.52;5.25;;;;;;;6.15;100.00;100920.56;5440232;26;20042;-71
2024/04/19 03:13:18;;;;;;;11.65;4.95;;;;;;;6.20;100.00;100928.75;5386350;26;20441;-70
2024/04/19 03:15:44;;;;;;;13.10;5.95;;;;;;;6.16;100.00;100924.75;5405683;26;20007;-72
2024/04/19 03:18:30;;;;;;;15.50;5.75;;;;;;;6.13;100.00;100928.41;5442733;26;20007;-72
2024/04/19 03:21:00;;;;;;;9.90;5.43;;;;;;;6.13;100.00;100917.28;5411758;26;20014;-71
2024/04/19 03:23:27;;;;;;;10.45;5.63;;;;;;;6.16;100.00;100917.88;5440465;26;20003;-70
2024/04/19 03:25:57;;;;;;;11.50;4.80;;;;;;;6.11;100.00;100911.44;5437365;26;20002;-72
2024/04/19 03:28:23;;;;;;;14.10;6.03;;;;;;;6.04;100.00;100903.41;5446765;26;20079;-72
2024/04/19 03:30:49;;;;;;;9.20;5.65;;;;;;;6.09;100.00;100890.16;5406594;26;20361;-71
2024/04/19 03:33:15;;;;;;;15.05;5.82;;;;;;;6.07;100.00;100885.13;5407361;26;20007;-71
2024/04/19 03:35:41;;;;;;;11.52;5.35;;;;;;;6.08;100.00;100878.22;5436208;26;20006;-72
2024/04/19 03:38:07;;;;;;;14.13;5.13;;;;;;;6.04;100.00;100870.72;5408642;26;20364;-71
2024/04/19 03:40:33;;;;;;;9.70;5.00;;;;;;;6.10;100.00;100863.47;5402939;26;20010;-71
2024/04/19 03:42:59;;;;;;;10.68;5.00;;;;;;;6.03;100.00;100858.81;5403594;26;20003;-72
2024/04/19 03:45:41;;;;;;;9.57;4.95;;;;;;;5.95;100.00;100868.06;5434770;26;20004;-72
2024/04/19 03:48:07;;;;;;;10.50;4.75;;;;;;;6.02;100.00;100851.22;5440505;26;20018;-73
2024/04/19 03:50:33;;;;;;;10.73;5.82;;;;;;;5.97;100.00;100841.31;5410189;26;20018;-72
2024/04/19 03:53:00;;;;;;;14.27;4.55;;;;;;;5.95;100.00;100834.59;5437724;26;20333;-72
2024/04/19 03:55:26;;;;;;;10.52;5.30;;;;;;;5.93;100.00;100829.56;5437935;26;20342;-72
2024/04/19 03:57:52;;;;;;;15.05;5.43;;;;;;;5.89;100.00;100822.25;5440781;26;20011;-72
2024/04/19 04:00:18;;;;;;;9.63;4.65;;;;;;;5.89;100.00;100817.91;5437612;26;20035;-72
2024/04/19 04:02:45;;;;;;;12.77;4.65;;;;;;;5.87;100.00;100819.78;5410358;26;20461;-73
2024/04/19 04:05:11;;;;;;;10.07;4.65;;;;;;;5.83;100.00;100810.69;5408344;26;20208;-71
2024/04/19 04:07:37;;;;;;;11.68;4.75;;;;;;;5.90;100.00;100798.16;5442387;26;20028;-71
2024/04/19 04:10:03;;;;;;;10.10;4.95;;;;;;;5.78;100.00;100803.34;5398560;26;20010;-71
2024/04/19 04:12:32;;;;;;;9.73;4.95;;;;;;;5.83;100.00;100792.66;5439176;26;20021;-71
2024/04/19 04:14:58;;;;;;;8.27;4.78;;;;;;;5.87;100.00;100796.63;5438719;26;20003;-72
2024/04/19 04:17:24;;;;;;;10.93;5.43;;;;;;;5.82;100.00;100788.44;5408262;26;20018;-71
2024/04/19 04:19:49;;;;;;;10.73;5.25;;;;;;;5.86;100.00;100792.44;5434038;26;20019;-72
2024/04/19 04:22:15;;;;;;;7.75;4.60;;;;;;;5.86;100.00;100787.28;5438936;26;20665;-72
2024/04/19 04:24:41;;;;;;;7.00;4.47;;;;;;;5.80;100.00;100790.34;5360134;26;20015;-71
2024/04/19 04:27:07;;;;;;;9.85;5.22;;;;;;;5.88;100.00;100771.69;5433281;26;20014;-72
2024/04/19 04:29:33;;;;;;;9.60;5.57;;;;;;;5.87;100.00;100770.88;5442732;26;20015;-72
2024/04/19 04:31:59;;;;;;;8.00;4.78;;;;;;;5.99;100.00;100759.63;5400570;26;20843;-72
2024/04/19 04:34:25;;;;;;;9.32;4.30;;;;;;;5.94;100.00;100748.84;5405199;26;20442;-71
2024/04/19 04:36:51;;;;;;;8.70;4.20;;;;;;;5.87;100.00;100742.56;5434049;26;20011;-72
2024/04/19 04:39:17;;;;;;;9.02;4.07;;;;;;;5.87;100.00;100740.00;5436470;26;20024;-71
2024/04/19 04:41:43;;;;;;;8.73;4.43;;;;;;;5.84;100.00;100738.50;5434967;26;20003;-71
2024/04/19 04:44:12;;;;;;;10.27;4.18;;;;;;;5.80;100.00;100750.00;5400111;26;20011;-72
2024/04/19 04:46:38;;;;;;;6.47;3.80;;;;;;;5.80;100.00;100744.84;5438502;26;20003;-72
2024/04/19 04:49:05;;;;;;;7.13;4.32;;;;;;;5.80;100.00;100741.44;5409462;26;20065;-72
2024/04/19 04:51:31;;;;;;;8.30;4.22;;;;;;;5.82;100.00;100721.53;5411754;26;20010;-72
2024/04/19 04:53:57;;;;;;;8.15;3.78;;;;;;;5.90;100.00;100715.78;5441760;26;19999;-72
2024/04/19 04:56:23;;;;;;;6.57;3.65;;;;;;;5.79;100.00;100720.06;5417526;26;20023;-71
2024/04/19 04:58:49;;;;;;;12.27;4.30;;;;;;;5.86;100.00;100720.38;5442963;26;20054;-73
2024/04/19 05:01:15;;;;;;;8.90;3.65;;;;;;;5.85;100.00;100726.44;5378355;26;20010;-72
2024/04/19 05:03:41;;;;;;;7.25;3.40;;;;;;;5.81;100.00;100725.88;5409952;26;20003;-71
2024/04/19 05:06:07;;;;;;;10.20;4.50;;;;;;;5.82;100.00;100736.97;5441801;26;20007;-72
2024/04/19 05:08:33;;;;;;;9.75;4.13;;;;;;;5.78;100.00;100709.88;5412279;26;20011;-71
2024/04/19 05:11:00;;;;;;;13.82;4.30;;;;;;;5.84;100.00;100711.97;5440200;26;20003;-71
2024/04/19 05:13:26;;;;;;;8.25;3.50;;;;;;;5.78;100.00;100707.31;5438460;26;20022;-72
2024/04/19 05:15:53;;;;;;;6.93;4.00;;;;;;;5.74;100.00;100690.50;5439428;26;20536;-72
2024/04/19 05:18:19;;;;;;;7.50;4.00;;;;;;;5.78;100.00;100695.28;5438161;26;20035;-71
2024/04/19 05:20:46;;;;;;;7.35;4.53;;;;;;;5.78;100.00;100703.00;5440118;26;20007;-71
2024/04/19 05:23:15;;;;;;;13.25;4.57;;;;;;;5.91;100.00;100701.97;5439411;26;20349;-72
2024/04/19 05:25:41;;;;;;;16.98;10.45;;;;;;;5.89;100.00;100698.69;5409697;26;20006;-71
2024/04/19 05:28:07;;;;;;;9.63;4.88;;;;;;;5.92;100.00;100695.88;5410823;26;20453;-72
2024/04/19 05:30:33;;;;;;;6.50;4.20;;;;;;;5.95;100.00;100688.75;5440626;26;19999;-73
2024/04/19 05:32:59;;;;;;;9.05;4.72;;;;;;;5.86;100.00;100684.34;5404956;26;20089;-73
2024/04/19 05:35:26;;;;;;;12.18;6.78;;;;;;;5.85;100.00;100674.97;5408389;26;20400;-72
2024/04/19 05:37:56;;;;;;;7.57;4.80;;;;;;;5.92;100.00;100670.16;5439718;26;20015;-72
2024/04/19 05:40:23;;;;;;;14.60;8.75;;;;;;;5.92;100.00;100676.09;5436123;26;20013;-71
2024/04/19 05:42:53;;;;;;;11.43;6.28;;;;;;;5.93;100.00;100670.00;5440458;26;20014;-71
2024/04/19 05:45:20;;;;;;;6.00;4.18;;;;;;;6.02;100.00;100671.81;5444465;26;20015;-71
2024/04/19 05:47:46;;;;;;;9.68;4.57;;;;;;;6.11;100.00;100674.59;5411555;26;20002;-73
2024/04/19 05:50:12;;;;;;;8.35;5.47;;;;;;;6.06;100.00;100663.84;5450076;26;20387;-71
2024/04/19 05:52:39;;;;;;;6.97;4.07;;;;;;;6.01;100.00;100659.13;5405593;26;20087;-71
2024/04/19 05:55:05;;;;;;;7.53;5.32;;;;;;;5.95;100.00;100657.88;5436924;26;20026;-71
2024/04/19 05:57:31;;;;;;;9.18;4.88;;;;;;;6.03;100.00;100663.19;5410264;26;20015;-71
2024/04/19 05:59:58;;;;;;;7.53;4.07;;;;;;;6.04;100.00;100669.13;5404894;26;20013;-71
2024/04/19 06:02:23;;;;;;;8.60;4.60;;;;;;;6.01;100.00;100675.38;5437957;26;19999;-71
2024/04/19 06:04:49;;;;;;;9.43;5.68;;;;;;;6.00;100.00;100660.03;5435616;26;20007;-71
2024/04/19 06:07:16;;;;;;;8.77;4.80;;;;;;;6.04;100.00;100657.06;5448360;26;20006;-71
2024/04/19 06:09:42;;;;;;;10.70;7.32;;;;;;;6.04;100.00;100651.91;5407422;26;20003;-72
2024/04/19 06:12:08;;;;;;;7.05;4.88;;;;;;;6.09;100.00;100645.59;5402083;26;20015;-72
2024/04/19 06:14:34;;;;;;;10.75;6.55;;;;;;;6.13;100.00;100634.06;5431713;26;20073;-72
2024/04/19 06:17:00;;;;;;;11.38;7.22;;;;;;;6.14;100.00;100623.66;5441263;26;20026;-71
2024/04/19 06:19:26;;;;;;;11.00;8.85;;;;;;;6.20;100.00;100632.63;5436732;26;20365;-71
2024/04/19 06:21:52;;;;;;;10.23;5.43;;;;;;;6.23;100.00;100612.56;5443041;26;20011;-71
2024/04/19 06:24:19;;;;;;;13.25;8.25;;;;;;;6.20;100.00;100605.09;5443326;26;20080;-71
2024/04/19 06:26:46;;;;;;;9.10;5.65;;;;;;;6.32;100.00;100605.78;5442157;26;20002;-71
2024/04/19 06:29:13;;;;;;;11.45;6.68;;;;;;;6.33;100.00;100597.13;5414933;26;20629;-71
2024/04/19 06:31:39;;;;;;;11.95;8.40;;;;;;;6.30;100.00;100610.25;5444465;26;20460;-71
2024/04/19 06:34:05;;;;;;;7.70;5.63;;;;;;;6.35;100.00;100608.09;5447393;26;19999;-71
2024/04/19 06:36:31;;;;;;;7.38;4.43;;;;;;;6.39;100.00;100611.25;5441765;26;20022;-70
2024/04/19 06:39:02;;;;;;;6.03;4.20;;;;;;;6.40;100.00;100605.97;5441097;26;20022;-71
2024/04/19 06:41:31;;;;;;;19.50;8.75;;;;;;;6.44;100.00;100606.47;5406143;26;20026;-70
2024/04/19 06:43:57;;;;;;;12.38;7.30;;;;;;;6.50;100.00;100595.66;5410174;26;20007;-70
2024/04/19 06:46:23;;;;;;;9.38;6.30;;;;;;;6.55;100.00;100592.66;5407607;26;20103;-71
2024/04/19 06:48:49;;;;;;;8.25;5.05;;;;;;;6.57;100.00;100595.91;5441290;26;20006;-71
2024/04/19 06:51:15;;;;;;;8.00;5.30;;;;;;;6.54;100.00;100580.75;5438675;26;20022;-71
2024/04/19 06:53:41;;;;;;;8.50;4.63;;;;;;;6.62;100.00;100580.88;5443102;26;20079;-71
2024/04/19 06:56:07;;;;;;;13.30;6.43;;;;;;;6.60;100.00;100580.19;5398906;26;20011;-71
2024/04/19 06:58:33;;;;;;;11.77;7.15;;;;;;;6.64;100.00;100576.41;5447680;26;20018;-72
2024/04/19 07:01:04;;;;;;;10.93;5.53;;;;;;;6.68;100.00;100574.38;5411377;26;20014;-72
2024/04/19 07:03:33;;;;;;;9.25;5.07;;;;;;;6.78;100.00;100572.59;5443729;26;20021;-71
2024/04/19 07:06:07;;;;;;;10.13;5.95;;;;;;;6.80;100.00;100566.38;5440784;26;20019;-71
2024/04/19 07:08:33;;;;;;;9.90;6.90;;;;;;;6.82;100.00;100564.47;5433887;26;20014;-73
2024/04/19 07:11:01;;;;;;;11.55;6.03;;;;;;;6.80;100.00;100565.56;5444658;26;20007;-72
2024/04/19 07:13:27;;;;;;;11.23;6.07;;;;;;;6.87;100.00;100563.22;5439330;26;20087;-72
2024/04/19 07:15:53;;;;;;;8.60;6.15;;;;;;;6.87;100.00;100560.66;5441711;26;20006;-71
2024/04/19 07:18:22;;;;;;;10.00;6.68;;;;;;;6.82;100.00;100558.50;5440105;26;20019;-73
2024/04/19 07:20:48;;;;;;;12.30;7.07;;;;;;;6.88;100.00;100562.31;5442224;26;20002;-72
2024/04/19 07:23:14;;;;;;;11.55;7.30;;;;;;;6.84;100.00;100556.59;5412518;26;20341;-72
2024/04/19 07:25:40;;;;;;;11.05;7.65;;;;;;;6.88;100.00;100559.72;5438596;26;19999;-72
2024/04/19 07:28:06;;;;;;;8.32;6.18;;;;;;;6.98;100.00;100563.09;5446827;26;20002;-72
2024/04/19 07:30:32;;;;;;;10.30;7.20;;;;;;;7.00;100.00;100556.81;5408779;26;21558;-72
2024/04/19 07:32:58;;;;;;;13.00;8.63;;;;;;;7.15;100.00;100548.66;5407960;26;20007;-72
2024/04/19 07:35:24;;;;;;;11.27;8.68;;;;;;;7.05;100.00;100542.72;5442869;26;20006;-72
2024/04/19 07:37:50;;;;;;;8.85;6.68;;;;;;;7.26;100.00;100534.81;5413310;26;20029;-72
2024/04/19 07:40:16;;;;;;;15.38;7.63;;;;;;;7.28;100.00;100546.59;5441875;26;20011;-71
2024/04/19 07:42:42;;;;;;;9.60;6.97;;;;;;;7.29;100.00;100543.06;5407179;26;20023;-71
2024/04/19 07:45:08;;;;;;;12.18;7.95;;;;;;;7.27;100.00;100544.16;5434651;26;20014;-72
2024/04/19 07:47:36;;;;;;;13.02;8.52;;;;;;;7.28;100.00;100538.84;5407308;26;20297;-72
2024/04/19 07:50:01;;;;;;;15.10;10.35;;;;;;;7.29;100.00;100543.06;5441983;26;20021;-72
2024/04/19 07:52:27;;;;;;;17.58;11.82;;;;;;;7.34;100.00;100538.28;5442305;26;20497;-70
2024/04/19 07:54:53;;;;;;;19.10;11.93;;;;;;;7.43;100.00;100528.91;5444710;26;20002;-72
2024/04/19 07:57:19;;;;;;;25.70;15.05;;;;;;;7.48;100.00;100529.28;5437734;26;20007;-71
2024/04/19 07:59:45;;;;;;;42.65;21.65;;;;;;;7.53;100.00;100521.09;5442672;26;20050;-72
2024/04/19 08:02:11;;;;;;;74.47;27.50;;;;;;;7.51;100.00;100518.66;5385440;26;20527;-71
2024/04/19 08:04:37;;;;;;;35.58;16.60;;;;;;;7.61;100.00;100521.22;5438038;26;20003;-71
2024/04/19 08:07:03;;;;;;;65.97;25.60;;;;;;;7.64;100.00;100520.91;5403071;26;20010;-71
2024/04/19 08:09:29;;;;;;;70.82;29.48;;;;;;;7.65;100.00;100524.31;5408771;26;20019;-71
2024/04/19 08:11:55;;;;;;;67.15;26.92;;;;;;;7.63;100.00;100516.72;5439114;26;20406;-71
2024/04/19 08:14:21;;;;;;;88.07;37.10;;;;;;;7.74;100.00;100519.13;5406773;26;20030;-71
2024/04/19 08:16:47;;;;;;;60.78;26.05;;;;;;;7.75;100.00;100507.00;5435785;26;20010;-71
2024/04/19 08:19:13;;;;;;;26.50;13.88;;;;;;;7.81;100.00;100509.00;5387166;26;20349;-71
2024/04/19 08:21:39;;;;;;;70.50;28.35;;;;;;;7.82;100.00;100494.31;5407600;26;20003;-71
2024/04/19 08:24:05;;;;;;;67.68;30.38;;;;;;;7.98;100.00;100502.25;5441014;26;20014;-71
2024/04/19 08:26:31;;;;;;;34.47;18.42;;;;;;;7.99;100.00;100496.13;5409282;26;20011;-71
2024/04/19 08:28:57;;;;;;;37.15;18.88;;;;;;;8.03;100.00;100496.66;5375151;26;20019;-71
2024/04/19 08:31:23;;;;;;;31.95;17.02;;;;;;;8.03;100.00;100496.66;5439058;26;20007;-71
2024/04/19 08:33:49;;;;;;;59.25;27.27;;;;;;;7.96;100.00;100493.84;5433663;26;20018;-71
2024/04/19 08:36:16;;;;;;;26.63;14.30;;;;;;;8.14;100.00;100501.63;5433942;26;20003;-72
2024/04/19 08:38:42;;;;;;;70.68;34.08;;;;;;;8.02;100.00;100495.03;5443917;26;20014;-71
2024/04/19 08:41:11;;;;;;;55.95;26.95;;;;;;;8.04;100.00;100495.69;5410147;26;20011;-72
2024/04/19 08:43:37;;;;;;;54.75;25.85;;;;;;;8.16;100.00;100495.31;5405729;26;20080;-72
2024/04/19 08:46:04;;;;;;;65.65;28.80;;;;;;;8.29;100.00;100496.75;5423702;26;19999;-72
2024/04/19 08:48:32;;;;;;;22.33;13.60;;;;;;;8.32;100.00;100497.22;5440907;26;19999;-71
2024/04/19 08:50:59;;;;;;;97.93;40.70;;;;;;;8.23;100.00;100497.31;5437442;26;20014;-72
2024/04/19 08:53:26;;;;;;;43.58;19.55;;;;;;;8.30;100.00;100494.00;5439614;26;20553;-72
2024/04/19 08:55:53;;;;;;;70.13;31.55;;;;;;;8.32;100.00;100489.47;5396460;26;20021;-71
2024/04/19 08:58:19;;;;;;;97.40;51.28;;;;;;;8.41;100.00;100484.41;5436984;26;20079;-72
2024/04/19 09:00:45;;;;;;;38.88;22.98;;;;;;;8.34;100.00;100487.59;5435256;26;20247;-72
2024/04/19 09:03:12;;;;;;;22.05;13.43;;;;;;;8.41;100.00;100486.97;5407951;26;20415;-72
2024/04/19 09:05:38;;;;;;;32.80;17.33;;;;;;;8.46;100.00;100484.81;5409682;26;20473;-72
2024/04/19 09:08:05;;;;;;;19.30;11.88;;;;;;;8.41;100.00;100480.03;5429789;26;20017;-72
2024/04/19 09:10:31;;;;;;;15.65;9.68;;;;;;;8.36;100.00;100477.91;5436737;26;20015;-72
2024/04/19 09:12:58;;;;;;;18.50;10.18;;;;;;;8.48;100.00;100477.72;5438612;26;20080;-71
2024/04/19 09:15:28;;;;;;;32.63;19.15;;;;;;;8.43;100.00;100462.63;5436253;26;20007;-72
2024/04/19 09:17:58;;;;;;;25.52;15.38;;;;;;;8.39;100.00;100467.25;5437106;26;20018;-71
2024/04/19 09:20:23;;;;;;;19.70;12.70;;;;;;;8.49;100.00;100474.16;5403956;26;20014;-73
2024/04/19 09:22:50;;;;;;;35.20;17.55;;;;;;;8.47;100.00;100468.31;5379533;26;21117;-72
2024/04/19 09:25:17;;;;;;;26.98;14.50;;;;;;;8.63;100.00;100457.31;5407745;26;20415;-72
2024/04/19 09:27:47;;;;;;;33.70;19.50;;;;;;;8.69;100.00;100456.69;5437452;26;20740;-72
2024/04/19 09:30:13;;;;;;;29.27;14.02;;;;;;;8.84;100.00;100446.59;5432371;26;20003;-72
2024/04/19 09:32:39;;;;;;;22.40;14.45;;;;;;;9.01;100.00;100432.78;5439245;26;20642;-72
2024/04/19 09:35:05;;;;;;;35.25;16.58;;;;;;;9.01;100.00;100430.19;5434410;26;20018;-72
2024/04/19 09:37:32;;;;;;;60.67;27.15;;;;;;;9.04;100.00;100429.91;5395131;26;20079;-73
2024/04/19 09:39:59;;;;;;;68.10;29.63;;;;;;;9.13;100.00;100436.72;5435700;26;19999;-72
2024/04/19 09:42:25;;;;;;;22.30;12.43;;;;;;;9.18;100.00;100427.69;5436145;26;20521;-72
2024/04/19 09:44:52;;;;;;;23.90;12.30;;;;;;;9.43;100.00;100434.56;5440555;26;20007;-72
2024/04/19 09:47:18;;;;;;;22.23;12.48;;;;;;;9.42;100.00;100442.47;5438832;26;20480;-72
2024/04/19 09:49:46;;;;;;;23.45;11.77;;;;;;;9.48;100.00;100445.25;5433957;26;20011;-72
2024/04/19 09:52:19;;;;;;;17.10;10.95;;;;;;;9.32;100.00;100435.69;5441503;26;20542;-73
2024/04/19 09:55:09;;;;;;;22.92;10.00;;;;;;;9.35;100.00;100425.00;5402443;26;20022;-73
2024/04/19 09:57:35;;;;;;;16.98;9.80;;;;;;;9.32;100.00;100425.31;5403287;26;20072;-72
2024/04/19 10:00:05;;;;;;;21.17;11.20;;;;;;;9.37;100.00;100414.50;5402799;26;20002;-72
2024/04/19 10:02:38;;;;;;;19.45;10.05;;;;;;;9.43;100.00;100415.63;5441835;26;20007;-71
2024/04/19 10:05:05;;;;;;;17.38;9.38;;;;;;;9.52;100.00;100404.34;5402378;26;20011;-73
2024/04/19 10:07:32;;;;;;;12.02;7.97;;;;;;;9.46;100.00;100400.59;5412246;26;20546;-72
2024/04/19 10:09:58;;;;;;;12.55;6.28;;;;;;;9.27;100.00;100396.53;5437511;26;20016;-73
2024/04/19 10:12:24;;;;;;;10.73;4.53;;;;;;;9.20;100.00;100399.91;5439667;26;20022;-73
2024/04/19 10:14:50;;;;;;;11.73;4.07;;;;;;;9.07;100.00;100395.16;5442576;26;20006;-73
2024/04/19 10:17:17;;;;;;;4.95;3.00;;;;;;;8.99;100.00;100400.31;5446261;26;20029;-73
2024/04/19 10:19:46;;;;;;;11.50;3.45;;;;;;;8.99;100.00;100401.09;5407884;26;20019;-72
2024/04/19 10:22:12;;;;;;;5.43;3.35;;;;;;;9.12;100.00;100393.72;5443193;26;20007;-73
2024/04/19 10:24:39;;;;;;;9.93;4.05;;;;;;;9.14;100.00;100396.94;5443365;26;20021;-74
2024/04/19 10:27:05;;;;;;;7.85;3.90;;;;;;;9.12;100.00;100411.81;5447186;26;20003;-73
2024/04/19 10:29:31;;;;;;;12.50;4.22;;;;;;;8.96;100.00;100411.75;5366017;26;20786;-73
2024/04/19 10:31:57;;;;;;;11.60;4.00;;;;;;;8.83;100.00;100419.91;5446560;26;19995;-73
2024/04/19 10:34:24;;;;;;;8.52;3.60;;;;;;;8.72;100.00;100408.09;5435276;26;20007;-73
2024/04/19 10:36:53;;;;;;;7.55;3.90;;;;;;;8.66;100.00;100411.25;5411800;26;20026;-75
2024/04/19 10:39:19;;;;;;;8.57;3.30;;;;;;;8.62;100.00;100406.56;5436231;26;20462;-73
2024/04/19 10:41:47;;;;;;;6.63;2.67;;;;;;;8.66;100.00;100400.13;5439971;26;20675;-72
2024/04/19 10:44:16;;;;;;;11.32;3.08;;;;;;;8.93;100.00;100388.81;5438428;26;20030;-75
2024/04/19 10:46:47;;;;;;;8.75;2.53;;;;;;;8.97;100.00;100405.63;5440444;26;20007;-72
2024/04/19 10:49:16;;;;;;;6.00;2.30;;;;;;;9.03;100.00;100392.06;5377150;26;20361;-74
2024/04/19 10:51:43;;;;;;;6.85;2.03;;;;;;;9.08;100.00;100395.00;5402584;26;20003;-73
2024/04/19 10:54:10;;;;;;;9.35;2.50;;;;;;;9.03;100.00;100391.25;5443182;26;20062;-74
2024/04/19 10:56:36;;;;;;;5.60;2.30;;;;;;;9.04;100.00;100400.63;5444807;26;20019;-73
2024/04/19 10:59:02;;;;;;;5.88;1.50;;;;;;;8.89;100.00;100387.47;5442205;26;20017;-75
2024/04/19 11:01:29;;;;;;;4.28;1.77;;;;;;;8.90;100.00;100378.75;5412253;26;20015;-74
2024/04/19 11:03:56;;;;;;;6.00;1.50;;;;;;;8.92;100.00;100394.91;5415383;26;20099;-74
2024/04/19 11:06:21;;;;;;;3.80;1.63;;;;;;;8.95;100.00;100392.84;5407010;26;20016;-76
2024/04/19 11:08:47;;;;;;;7.88;1.80;;;;;;;8.97;100.00;100387.53;5408494;26;20005;-73
2024/04/19 11:11:15;;;;;;;4.50;1.70;;;;;;;9.23;100.00;100392.63;5408511;26;20006;-75
2024/04/19 11:13:43;;;;;;;30.10;3.38;;;;;;;9.35;100.00;100378.41;5389425;26;20571;-74
2024/04/19 11:16:09;;;;;;;4.20;2.00;;;;;;;9.52;100.00;100381.84;5401039;26;20765;-74
2024/04/19 11:18:36;;;;;;;6.72;2.10;;;;;;;9.69;100.00;100381.88;5409336;26;20010;-73
2024/04/19 11:21:02;;;;;;;4.70;2.25;;;;;;;9.98;100.00;100380.59;5441413;26;20019;-73